sensor_id;sensor_type;location;lat;lon;timestamp;P1;durP1;ratioP1;P2;durP2;ratioP2
23242;SDS011;11790;49.578;11.214;2023-12-20T00:03:19;13.82;;;9.32;;
23242;SDS011;11790;49.578;11.214;2023-12-20T00:08:19;16.92;;;10.98;;
23242;SDS011;11790;49.578;11.214;2023-12-20T00:13:19;18.15;;;10.35;;
23242;SDS011;11790;49.578;11.214;2023-12-20T00:18:20;20.25;;;10.75;;
23242;SDS011;11790;49.578;11.214;2023-12-20T00:23:20;21.15;;;10.70;;
23242;SDS011;11790;49.578;11.214;2023-12-20T00:28:20;17.33;;;9.93;;
23242;SDS011;11790;49.578;11.214;2023-12-20T00:33:20;15.35;;;9.70;;
23242;SDS011;11790;49.578;11.214;2023-12-20T00:38:20;15.90;;;9.85;;
23242;SDS011;11790;49.578;11.214;2023-12-20T00:43:21;17.17;;;9.95;;
23242;SDS011;11790;49.578;11.214;2023-12-20T00:48:21;17.10;;;10.05;;
23242;SDS011;11790;49.578;11.214;2023-12-20T00:53:21;15.73;;;9.25;;
23242;SDS011;11790;49.578;11.214;2023-12-20T00:58:21;16.05;;;8.38;;
23242;SDS011;11790;49.578;11.214;2023-12-20T01:03:22;14.38;;;8.68;;
23242;SDS011;11790;49.578;11.214;2023-12-20T01:08:22;16.40;;;8.38;;
23242;SDS011;11790;49.578;11.214;2023-12-20T01:13:22;13.88;;;8.32;;
23242;SDS011;11790;49.578;11.214;2023-12-20T01:18:22;13.20;;;7.22;;
23242;SDS011;11790;49.578;11.214;2023-12-20T01:23:22;15.65;;;6.90;;
23242;SDS011;11790;49.578;11.214;2023-12-20T01:28:23;8.38;;;5.68;;
23242;SDS011;11790;49.578;11.214;2023-12-20T01:33:23;8.93;;;5.13;;
23242;SDS011;11790;49.578;11.214;2023-12-20T01:38:23;8.30;;;4.50;;
23242;SDS011;11790;49.578;11.214;2023-12-20T01:43:23;8.60;;;4.28;;
23242;SDS011;11790;49.578;11.214;2023-12-20T01:48:24;5.28;;;3.80;;
23242;SDS011;11790;49.578;11.214;2023-12-20T01:53:25;7.30;;;3.70;;
23242;SDS011;11790;49.578;11.214;2023-12-20T01:58:25;4.85;;;3.47;;
23242;SDS011;11790;49.578;11.214;2023-12-20T02:03:25;7.70;;;3.40;;
23242;SDS011;11790;49.578;11.214;2023-12-20T02:08:26;4.20;;;3.20;;
23242;SDS011;11790;49.578;11.214;2023-12-20T02:13:26;4.80;;;2.80;;
23242;SDS011;11790;49.578;11.214;2023-12-20T02:18:26;5.03;;;2.53;;
23242;SDS011;11790;49.578;11.214;2023-12-20T02:23:26;4.72;;;2.92;;
23242;SDS011;11790;49.578;11.214;2023-12-20T02:28:27;5.93;;;2.45;;
23242;SDS011;11790;49.578;11.214;2023-12-20T02:33:27;4.43;;;2.47;;
23242;SDS011;11790;49.578;11.214;2023-12-20T02:38:27;4.30;;;2.88;;
23242;SDS011;11790;49.578;11.214;2023-12-20T02:43:27;5.13;;;2.33;;
23242;SDS011;11790;49.578;11.214;2023-12-20T02:48:28;4.10;;;1.98;;
23242;SDS011;11790;49.578;11.214;2023-12-20T02:53:28;2.58;;;2.00;;
23242;SDS011;11790;49.578;11.214;2023-12-20T02:58:28;3.72;;;1.85;;
23242;SDS011;11790;49.578;11.214;2023-12-20T03:03:28;3.80;;;1.58;;
23242;SDS011;11790;49.578;11.214;2023-12-20T03:08:28;1.85;;;1.40;;
23242;SDS011;11790;49.578;11.214;2023-12-20T03:13:28;2.53;;;1.63;;
23242;SDS011;11790;49.578;11.214;2023-12-20T03:18:29;4.82;;;1.70;;
23242;SDS011;11790;49.578;11.214;2023-12-20T03:23:29;2.97;;;1.70;;
23242;SDS011;11790;49.578;11.214;2023-12-20T03:28:30;2.15;;;1.55;;
23242;SDS011;11790;49.578;11.214;2023-12-20T03:33:30;3.22;;;1.63;;
23242;SDS011;11790;49.578;11.214;2023-12-20T03:38:30;2.20;;;1.40;;
23242;SDS011;11790;49.578;11.214;2023-12-20T03:43:31;2.63;;;1.77;;
23242;SDS011;11790;49.578;11.214;2023-12-20T03:48:31;2.20;;;1.60;;
23242;SDS011;11790;49.578;11.214;2023-12-20T03:53:31;2.17;;;1.73;;
23242;SDS011;11790;49.578;11.214;2023-12-20T03:58:31;3.08;;;1.73;;
23242;SDS011;11790;49.578;11.214;2023-12-20T04:03:31;2.22;;;1.75;;
23242;SDS011;11790;49.578;11.214;2023-12-20T04:08:31;2.55;;;1.63;;
23242;SDS011;11790;49.578;11.214;2023-12-20T04:13:31;1.52;;;1.30;;
23242;SDS011;11790;49.578;11.214;2023-12-20T04:18:32;2.05;;;1.60;;
23242;SDS011;11790;49.578;11.214;2023-12-20T04:23:32;1.80;;;1.50;;
23242;SDS011;11790;49.578;11.214;2023-12-20T04:28:32;1.92;;;1.30;;
23242;SDS011;11790;49.578;11.214;2023-12-20T04:33:32;2.17;;;1.70;;
23242;SDS011;11790;49.578;11.214;2023-12-20T04:38:32;4.35;;;1.45;;
23242;SDS011;11790;49.578;11.214;2023-12-20T04:43:33;3.22;;;1.80;;
23242;SDS011;11790;49.578;11.214;2023-12-20T04:48:33;2.65;;;1.98;;
23242;SDS011;11790;49.578;11.214;2023-12-20T04:53:33;2.38;;;1.60;;
23242;SDS011;11790;49.578;11.214;2023-12-20T04:58:33;1.98;;;1.60;;
23242;SDS011;11790;49.578;11.214;2023-12-20T05:03:33;2.63;;;1.98;;
23242;SDS011;11790;49.578;11.214;2023-12-20T05:08:34;2.57;;;1.83;;
23242;SDS011;11790;49.578;11.214;2023-12-20T05:13:34;2.75;;;2.15;;
23242;SDS011;11790;49.578;11.214;2023-12-20T05:18:34;2.28;;;1.83;;
23242;SDS011;11790;49.578;11.214;2023-12-20T05:23:34;3.00;;;2.13;;
23242;SDS011;11790;49.578;11.214;2023-12-20T05:28:35;2.30;;;1.87;;
23242;SDS011;11790;49.578;11.214;2023-12-20T05:33:35;2.65;;;1.90;;
23242;SDS011;11790;49.578;11.214;2023-12-20T05:38:35;3.05;;;2.20;;
23242;SDS011;11790;49.578;11.214;2023-12-20T05:43:35;3.05;;;2.38;;
23242;SDS011;11790;49.578;11.214;2023-12-20T05:48:35;3.20;;;2.22;;
23242;SDS011;11790;49.578;11.214;2023-12-20T05:53:35;4.15;;;2.40;;
23242;SDS011;11790;49.578;11.214;2023-12-20T05:58:36;2.55;;;1.92;;
23242;SDS011;11790;49.578;11.214;2023-12-20T06:03:36;3.30;;;2.20;;
23242;SDS011;11790;49.578;11.214;2023-12-20T06:08:36;3.55;;;2.35;;
23242;SDS011;11790;49.578;11.214;2023-12-20T06:13:36;3.75;;;2.90;;
23242;SDS011;11790;49.578;11.214;2023-12-20T06:18:37;3.75;;;2.40;;
23242;SDS011;11790;49.578;11.214;2023-12-20T06:23:37;3.42;;;2.47;;
23242;SDS011;11790;49.578;11.214;2023-12-20T06:28:37;2.88;;;2.15;;
23242;SDS011;11790;49.578;11.214;2023-12-20T06:33:38;3.75;;;2.60;;
23242;SDS011;11790;49.578;11.214;2023-12-20T06:38:40;4.20;;;3.08;;
23242;SDS011;11790;49.578;11.214;2023-12-20T06:43:42;5.20;;;3.40;;
23242;SDS011;11790;49.578;11.214;2023-12-20T06:48:42;5.72;;;3.53;;
23242;SDS011;11790;49.578;11.214;2023-12-20T06:53:42;5.30;;;4.07;;
23242;SDS011;11790;49.578;11.214;2023-12-20T06:58:43;4.95;;;3.95;;
23242;SDS011;11790;49.578;11.214;2023-12-20T07:03:43;5.57;;;3.95;;
23242;SDS011;11790;49.578;11.214;2023-12-20T07:08:43;5.83;;;4.00;;
23242;SDS011;11790;49.578;11.214;2023-12-20T07:13:44;6.70;;;4.83;;
23242;SDS011;11790;49.578;11.214;2023-12-20T07:18:44;7.78;;;5.60;;
23242;SDS011;11790;49.578;11.214;2023-12-20T07:23:44;5.67;;;4.83;;
23242;SDS011;11790;49.578;11.214;2023-12-20T07:28:44;5.50;;;4.40;;
23242;SDS011;11790;49.578;11.214;2023-12-20T07:33:44;9.18;;;6.18;;
23242;SDS011;11790;49.578;11.214;2023-12-20T07:38:45;11.00;;;7.55;;
23242;SDS011;11790;49.578;11.214;2023-12-20T07:43:45;7.75;;;5.57;;
23242;SDS011;11790;49.578;11.214;2023-12-20T07:48:45;12.50;;;7.80;;
23242;SDS011;11790;49.578;11.214;2023-12-20T07:53:46;9.55;;;6.38;;
23242;SDS011;11790;49.578;11.214;2023-12-20T07:58:46;11.48;;;7.25;;
23242;SDS011;11790;49.578;11.214;2023-12-20T08:03:48;11.32;;;5.95;;
23242;SDS011;11790;49.578;11.214;2023-12-20T08:08:48;8.30;;;6.53;;
23242;SDS011;11790;49.578;11.214;2023-12-20T08:13:49;7.40;;;5.50;;
23242;SDS011;11790;49.578;11.214;2023-12-20T08:18:50;8.48;;;5.68;;
23242;SDS011;11790;49.578;11.214;2023-12-20T08:23:50;9.15;;;6.03;;
23242;SDS011;11790;49.578;11.214;2023-12-20T08:28:50;10.00;;;5.68;;
23242;SDS011;11790;49.578;11.214;2023-12-20T08:33:50;31.48;;;6.45;;
23242;SDS011;11790;49.578;11.214;2023-12-20T08:38:52;7.70;;;5.85;;
23242;SDS011;11790;49.578;11.214;2023-12-20T08:43:53;9.03;;;5.63;;
23242;SDS011;11790;49.578;11.214;2023-12-20T08:48:53;8.38;;;4.63;;
23242;SDS011;11790;49.578;11.214;2023-12-20T08:53:53;4.72;;;3.42;;
23242;SDS011;11790;49.578;11.214;2023-12-20T08:58:53;6.77;;;3.83;;
23242;SDS011;11790;49.578;11.214;2023-12-20T09:03:54;5.20;;;3.90;;
23242;SDS011;11790;49.578;11.214;2023-12-20T09:08:54;7.30;;;5.28;;
23242;SDS011;11790;49.578;11.214;2023-12-20T09:13:54;9.93;;;6.00;;
23242;SDS011;11790;49.578;11.214;2023-12-20T09:18:54;9.70;;;5.50;;
23242;SDS011;11790;49.578;11.214;2023-12-20T09:23:54;7.57;;;4.32;;
23242;SDS011;11790;49.578;11.214;2023-12-20T09:28:54;8.65;;;5.47;;
23242;SDS011;11790;49.578;11.214;2023-12-20T09:33:55;11.20;;;5.65;;
23242;SDS011;11790;49.578;11.214;2023-12-20T09:38:55;19.40;;;6.90;;
23242;SDS011;11790;49.578;11.214;2023-12-20T09:43:55;10.70;;;4.95;;
23242;SDS011;11790;49.578;11.214;2023-12-20T09:48:57;9.30;;;4.72;;
23242;SDS011;11790;49.578;11.214;2023-12-20T09:53:58;7.53;;;4.57;;
23242;SDS011;11790;49.578;11.214;2023-12-20T09:58:59;7.07;;;3.40;;
23242;SDS011;11790;49.578;11.214;2023-12-20T10:03:59;9.65;;;3.63;;
23242;SDS011;11790;49.578;11.214;2023-12-20T10:09:00;6.50;;;3.90;;
23242;SDS011;11790;49.578;11.214;2023-12-20T10:14:01;5.45;;;3.30;;
23242;SDS011;11790;49.578;11.214;2023-12-20T10:19:01;5.93;;;3.03;;
23242;SDS011;11790;49.578;11.214;2023-12-20T10:24:01;9.73;;;3.03;;
23242;SDS011;11790;49.578;11.214;2023-12-20T10:29:02;5.00;;;2.78;;
23242;SDS011;11790;49.578;11.214;2023-12-20T10:34:04;6.93;;;2.92;;
23242;SDS011;11790;49.578;11.214;2023-12-20T10:39:04;3.45;;;2.42;;
23242;SDS011;11790;49.578;11.214;2023-12-20T10:44:07;4.80;;;2.45;;
23242;SDS011;11790;49.578;11.214;2023-12-20T10:49:08;9.00;;;2.50;;
23242;SDS011;11790;49.578;11.214;2023-12-20T10:54:09;5.88;;;2.83;;
23242;SDS011;11790;49.578;11.214;2023-12-20T10:59:10;10.82;;;3.33;;
23242;SDS011;11790;49.578;11.214;2023-12-20T11:04:13;7.53;;;2.38;;
23242;SDS011;11790;49.578;11.214;2023-12-20T11:14:29;7.75;;;2.83;;
23242;SDS011;11790;49.578;11.214;2023-12-20T11:19:31;8.23;;;2.55;;
23242;SDS011;11790;49.578;11.214;2023-12-20T11:24:32;11.18;;;4.25;;
23242;SDS011;11790;49.578;11.214;2023-12-20T11:34:34;5.60;;;2.15;;
23242;SDS011;11790;49.578;11.214;2023-12-20T11:39:35;7.47;;;2.28;;
23242;SDS011;11790;49.578;11.214;2023-12-20T11:44:36;6.03;;;1.90;;
23242;SDS011;11790;49.578;11.214;2023-12-20T11:49:37;7.22;;;2.03;;
23242;SDS011;11790;49.578;11.214;2023-12-20T11:54:37;8.93;;;2.25;;
23242;SDS011;11790;49.578;11.214;2023-12-20T11:59:37;8.57;;;2.40;;
23242;SDS011;11790;49.578;11.214;2023-12-20T12:04:37;10.20;;;3.00;;
23242;SDS011;11790;49.578;11.214;2023-12-20T12:09:38;9.80;;;2.70;;
23242;SDS011;11790;49.578;11.214;2023-12-20T12:14:38;9.85;;;2.40;;
23242;SDS011;11790;49.578;11.214;2023-12-20T12:19:40;8.48;;;2.70;;
23242;SDS011;11790;49.578;11.214;2023-12-20T12:24:41;8.23;;;2.92;;
23242;SDS011;11790;49.578;11.214;2023-12-20T12:29:59;5.00;;;2.35;;
23242;SDS011;11790;49.578;11.214;2023-12-20T12:35:00;6.50;;;2.35;;
23242;SDS011;11790;49.578;11.214;2023-12-20T12:40:00;9.48;;;2.45;;
23242;SDS011;11790;49.578;11.214;2023-12-20T12:45:00;8.48;;;2.67;;
23242;SDS011;11790;49.578;11.214;2023-12-20T12:50:00;6.78;;;3.08;;
23242;SDS011;11790;49.578;11.214;2023-12-20T12:55:01;11.23;;;3.20;;
23242;SDS011;11790;49.578;11.214;2023-12-20T13:00:01;11.35;;;2.90;;
23242;SDS011;11790;49.578;11.214;2023-12-20T13:05:03;9.30;;;2.85;;
23242;SDS011;11790;49.578;11.214;2023-12-20T13:10:04;6.65;;;2.53;;
23242;SDS011;11790;49.578;11.214;2023-12-20T13:15:05;8.95;;;2.53;;
23242;SDS011;11790;49.578;11.214;2023-12-20T13:20:06;7.33;;;2.60;;
23242;SDS011;11790;49.578;11.214;2023-12-20T13:25:06;8.57;;;3.25;;
23242;SDS011;11790;49.578;11.214;2023-12-20T13:30:07;6.78;;;2.50;;
23242;SDS011;11790;49.578;11.214;2023-12-20T13:35:07;7.10;;;2.83;;
23242;SDS011;11790;49.578;11.214;2023-12-20T13:40:07;7.95;;;2.92;;
23242;SDS011;11790;49.578;11.214;2023-12-20T13:45:08;7.15;;;2.53;;
23242;SDS011;11790;49.578;11.214;2023-12-20T13:50:08;11.55;;;3.05;;
23242;SDS011;11790;49.578;11.214;2023-12-20T13:55:09;6.55;;;3.28;;
23242;SDS011;11790;49.578;11.214;2023-12-20T14:00:10;10.93;;;3.25;;
23242;SDS011;11790;49.578;11.214;2023-12-20T14:05:14;10.55;;;3.28;;
23242;SDS011;11790;49.578;11.214;2023-12-20T14:10:17;11.48;;;3.00;;
23242;SDS011;11790;49.578;11.214;2023-12-20T14:15:17;12.15;;;2.60;;
23242;SDS011;11790;49.578;11.214;2023-12-20T14:20:18;7.75;;;3.15;;
23242;SDS011;11790;49.578;11.214;2023-12-20T14:25:18;6.97;;;2.58;;
23242;SDS011;11790;49.578;11.214;2023-12-20T14:30:18;10.20;;;2.70;;
23242;SDS011;11790;49.578;11.214;2023-12-20T14:35:18;6.75;;;2.70;;
23242;SDS011;11790;49.578;11.214;2023-12-20T14:40:19;9.40;;;2.80;;
23242;SDS011;11790;49.578;11.214;2023-12-20T14:45:20;9.23;;;3.00;;
23242;SDS011;11790;49.578;11.214;2023-12-20T14:50:20;6.07;;;2.42;;
23242;SDS011;11790;49.578;11.214;2023-12-20T14:55:21;6.38;;;3.15;;
23242;SDS011;11790;49.578;11.214;2023-12-20T15:00:23;7.28;;;2.60;;
23242;SDS011;11790;49.578;11.214;2023-12-20T15:05:23;6.38;;;2.95;;
23242;SDS011;11790;49.578;11.214;2023-12-20T15:10:23;5.93;;;2.75;;
23242;SDS011;11790;49.578;11.214;2023-12-20T15:15:23;7.30;;;3.40;;
23242;SDS011;11790;49.578;11.214;2023-12-20T15:20:25;8.35;;;3.00;;
23242;SDS011;11790;49.578;11.214;2023-12-20T15:25:25;6.63;;;3.00;;
23242;SDS011;11790;49.578;11.214;2023-12-20T15:30:25;7.68;;;3.17;;
23242;SDS011;11790;49.578;11.214;2023-12-20T15:35:25;7.18;;;2.83;;
23242;SDS011;11790;49.578;11.214;2023-12-20T15:40:26;11.30;;;3.30;;
23242;SDS011;11790;49.578;11.214;2023-12-20T15:45:26;7.13;;;3.50;;
23242;SDS011;11790;49.578;11.214;2023-12-20T15:50:26;10.07;;;3.35;;
23242;SDS011;11790;49.578;11.214;2023-12-20T15:55:29;10.10;;;3.28;;
23242;SDS011;11790;49.578;11.214;2023-12-20T16:00:29;10.23;;;4.15;;
23242;SDS011;11790;49.578;11.214;2023-12-20T16:05:32;12.27;;;4.07;;
23242;SDS011;11790;49.578;11.214;2023-12-20T16:10:32;7.35;;;3.78;;
23242;SDS011;11790;49.578;11.214;2023-12-20T16:15:32;6.53;;;4.00;;
23242;SDS011;11790;49.578;11.214;2023-12-20T16:20:33;7.75;;;4.03;;
23242;SDS011;11790;49.578;11.214;2023-12-20T16:25:34;9.75;;;4.47;;
23242;SDS011;11790;49.578;11.214;2023-12-20T16:30:37;7.45;;;3.80;;
23242;SDS011;11790;49.578;11.214;2023-12-20T16:35:37;9.68;;;4.63;;
23242;SDS011;11790;49.578;11.214;2023-12-20T16:40:38;8.98;;;4.22;;
23242;SDS011;11790;49.578;11.214;2023-12-20T16:45:38;10.80;;;4.47;;
23242;SDS011;11790;49.578;11.214;2023-12-20T16:50:38;11.55;;;4.35;;
23242;SDS011;11790;49.578;11.214;2023-12-20T16:55:38;12.07;;;4.18;;
23242;SDS011;11790;49.578;11.214;2023-12-20T17:00:38;11.38;;;4.63;;
23242;SDS011;11790;49.578;11.214;2023-12-20T17:05:40;12.88;;;4.78;;
23242;SDS011;11790;49.578;11.214;2023-12-20T17:10:40;10.20;;;4.50;;
23242;SDS011;11790;49.578;11.214;2023-12-20T17:15:40;10.05;;;4.07;;
23242;SDS011;11790;49.578;11.214;2023-12-20T17:20:41;11.27;;;3.97;;
23242;SDS011;11790;49.578;11.214;2023-12-20T17:25:41;9.93;;;4.43;;
23242;SDS011;11790;49.578;11.214;2023-12-20T17:30:42;10.75;;;4.75;;
23242;SDS011;11790;49.578;11.214;2023-12-20T17:35:43;8.38;;;4.40;;
23242;SDS011;11790;49.578;11.214;2023-12-20T17:40:44;9.95;;;4.47;;
23242;SDS011;11790;49.578;11.214;2023-12-20T17:45:44;9.45;;;4.28;;
23242;SDS011;11790;49.578;11.214;2023-12-20T17:50:45;6.07;;;3.70;;
23242;SDS011;11790;49.578;11.214;2023-12-20T17:55:45;10.95;;;4.82;;
23242;SDS011;11790;49.578;11.214;2023-12-20T18:00:45;11.02;;;4.20;;
23242;SDS011;11790;49.578;11.214;2023-12-20T18:05:45;10.98;;;4.38;;
23242;SDS011;11790;49.578;11.214;2023-12-20T18:10:46;9.57;;;3.63;;
23242;SDS011;11790;49.578;11.214;2023-12-20T18:15:46;7.93;;;3.80;;
23242;SDS011;11790;49.578;11.214;2023-12-20T18:20:46;11.57;;;4.63;;
23242;SDS011;11790;49.578;11.214;2023-12-20T18:25:46;6.28;;;3.70;;
23242;SDS011;11790;49.578;11.214;2023-12-20T18:30:47;8.85;;;3.70;;
23242;SDS011;11790;49.578;11.214;2023-12-20T18:35:47;10.38;;;3.95;;
23242;SDS011;11790;49.578;11.214;2023-12-20T18:40:47;8.40;;;3.88;;
23242;SDS011;11790;49.578;11.214;2023-12-20T18:45:47;10.87;;;3.80;;
23242;SDS011;11790;49.578;11.214;2023-12-20T18:50:47;9.75;;;3.50;;
23242;SDS011;11790;49.578;11.214;2023-12-20T18:55:48;6.05;;;3.15;;
23242;SDS011;11790;49.578;11.214;2023-12-20T19:00:48;12.00;;;4.05;;
23242;SDS011;11790;49.578;11.214;2023-12-20T19:05:48;14.68;;;4.47;;
23242;SDS011;11790;49.578;11.214;2023-12-20T19:10:48;7.70;;;3.75;;
23242;SDS011;11790;49.578;11.214;2023-12-20T19:15:50;14.43;;;4.38;;
23242;SDS011;11790;49.578;11.214;2023-12-20T19:20:50;9.55;;;3.92;;
23242;SDS011;11790;49.578;11.214;2023-12-20T19:25:50;11.35;;;4.38;;
23242;SDS011;11790;49.578;11.214;2023-12-20T19:30:50;14.48;;;3.83;;
23242;SDS011;11790;49.578;11.214;2023-12-20T19:35:50;12.30;;;4.13;;
23242;SDS011;11790;49.578;11.214;2023-12-20T19:40:51;8.48;;;3.70;;
23242;SDS011;11790;49.578;11.214;2023-12-20T19:45:53;7.95;;;3.70;;
23242;SDS011;11790;49.578;11.214;2023-12-20T19:50:53;14.23;;;3.72;;
23242;SDS011;11790;49.578;11.214;2023-12-20T19:55:54;6.10;;;2.88;;
23242;SDS011;11790;49.578;11.214;2023-12-20T20:00:54;10.35;;;3.42;;
23242;SDS011;11790;49.578;11.214;2023-12-20T20:05:54;7.95;;;3.92;;
23242;SDS011;11790;49.578;11.214;2023-12-20T20:10:54;8.40;;;3.10;;
23242;SDS011;11790;49.578;11.214;2023-12-20T20:15:55;7.80;;;3.35;;
23242;SDS011;11790;49.578;11.214;2023-12-20T20:20:55;10.27;;;3.13;;
23242;SDS011;11790;49.578;11.214;2023-12-20T20:25:55;6.90;;;3.38;;
23242;SDS011;11790;49.578;11.214;2023-12-20T20:30:56;9.25;;;3.47;;
23242;SDS011;11790;49.578;11.214;2023-12-20T20:35:56;4.82;;;3.20;;
23242;SDS011;11790;49.578;11.214;2023-12-20T20:40:56;5.75;;;3.20;;
23242;SDS011;11790;49.578;11.214;2023-12-20T20:45:58;5.72;;;3.28;;
23242;SDS011;11790;49.578;11.214;2023-12-20T20:50:59;6.55;;;3.72;;
23242;SDS011;11790;49.578;11.214;2023-12-20T20:55:59;7.70;;;3.35;;
23242;SDS011;11790;49.578;11.214;2023-12-20T21:00:59;6.97;;;3.63;;
23242;SDS011;11790;49.578;11.214;2023-12-20T21:06:00;9.10;;;3.45;;
23242;SDS011;11790;49.578;11.214;2023-12-20T21:11:02;7.18;;;3.50;;
23242;SDS011;11790;49.578;11.214;2023-12-20T21:16:02;8.95;;;3.60;;
23242;SDS011;11790;49.578;11.214;2023-12-20T21:21:03;9.27;;;3.85;;
23242;SDS011;11790;49.578;11.214;2023-12-20T21:26:03;10.10;;;3.53;;
23242;SDS011;11790;49.578;11.214;2023-12-20T21:31:06;9.73;;;3.95;;
23242;SDS011;11790;49.578;11.214;2023-12-20T21:36:08;6.35;;;3.20;;
23242;SDS011;11790;49.578;11.214;2023-12-20T21:41:10;5.85;;;3.00;;
23242;SDS011;11790;49.578;11.214;2023-12-20T21:46:10;9.10;;;3.40;;
23242;SDS011;11790;49.578;11.214;2023-12-20T21:51:10;7.65;;;3.17;;
23242;SDS011;11790;49.578;11.214;2023-12-20T22:01:16;8.10;;;2.92;;
23242;SDS011;11790;49.578;11.214;2023-12-20T22:06:16;7.60;;;3.33;;
23242;SDS011;11790;49.578;11.214;2023-12-20T22:11:21;6.55;;;3.25;;
23242;SDS011;11790;49.578;11.214;2023-12-20T22:16:21;8.27;;;2.78;;
23242;SDS011;11790;49.578;11.214;2023-12-20T22:21:21;9.18;;;3.45;;
23242;SDS011;11790;49.578;11.214;2023-12-20T22:26:22;10.35;;;2.85;;
23242;SDS011;11790;49.578;11.214;2023-12-20T22:31:22;8.73;;;2.92;;
23242;SDS011;11790;49.578;11.214;2023-12-20T22:36:22;5.28;;;2.75;;
23242;SDS011;11790;49.578;11.214;2023-12-20T22:41:23;5.20;;;2.92;;
23242;SDS011;11790;49.578;11.214;2023-12-20T22:46:23;11.37;;;3.33;;
23242;SDS011;11790;49.578;11.214;2023-12-20T22:51:23;10.00;;;3.10;;
23242;SDS011;11790;49.578;11.214;2023-12-20T22:56:23;8.10;;;3.05;;
23242;SDS011;11790;49.578;11.214;2023-12-20T23:01:25;9.85;;;3.25;;
23242;SDS011;11790;49.578;11.214;2023-12-20T23:06:25;7.10;;;3.20;;
23242;SDS011;11790;49.578;11.214;2023-12-20T23:11:25;5.38;;;2.70;;
23242;SDS011;11790;49.578;11.214;2023-12-20T23:16:25;5.40;;;2.80;;
23242;SDS011;11790;49.578;11.214;2023-12-20T23:21:26;10.18;;;3.28;;
23242;SDS011;11790;49.578;11.214;2023-12-20T23:26:26;4.95;;;2.30;;
23242;SDS011;11790;49.578;11.214;2023-12-20T23:31:26;4.88;;;2.10;;
23242;SDS011;11790;49.578;11.214;2023-12-20T23:36:26;5.43;;;2.40;;
23242;SDS011;11790;49.578;11.214;2023-12-20T23:41:26;10.23;;;2.95;;
23242;SDS011;11790;49.578;11.214;2023-12-20T23:46:28;7.70;;;2.63;;
23242;SDS011;11790;49.578;11.214;2023-12-20T23:51:28;6.70;;;2.30;;
23242;SDS011;11790;49.578;11.214;2023-12-20T23:56:28;5.63;;;2.33;;
